Main page
Satellite images 15-day forecastsClimateMarine weather Cyclones Lightning AirportsFAQ Newsletter About
Weather : Europe Africa North America South America Asia Australia-Oceania Others
Languages Contact

Islamabad, Pakistan

latitude: 33-37N, longitude: 073-06E, elevation: 507 m


METAR: OPRN 241400Z 05004KT 2000 HZ FEW040 SCT100 15/08 Q1017.7/30.05
TAF: OPRN 240930Z 2412/2518 23005KT 4000 HZ SCT100 SCT200 TEMPO 25 CHECK TEXT NEW ENDING ADDED VABBYFYX

Time: 20:53 (15:53 UTC)

Current weather observation

The report was made 1 hour and 53 minutes ago, at 14:00 UTC
Wind 4 kt from the Northeast
Temperature 15°C
Humidity 63%
Pressure 1017 hPa
Visibility: 2000 m
Few clouds at a height of 4000 ft
Scattered clouds at a height of 10000 ft
haze

Change units

Forecast

The report was made 6 hours and 23 minutes ago, at 09:30 UTC
Forecast valid from 24 at 12 UTC to 25 at 18 UTC
Wind 5 kt from the Southwest
Visibility: 4000 m
Scattered clouds at a height of 10000 ft
Scattered clouds at a height of 20000 ft
haze
Temporary between 25 and UTC
The information on this site is subject to a disclaimer
Weather : Europe Africa North America South America Asia Australia-Oceania Others
Satellite images 15-day forecastsClimateMarine weather Cyclones Lightning AirportsFAQ Languages Contact Newsletter About